ZEF weather

Elkin Municipal Airport
Elkin, North Carolina, United States

Public forecast

Using degrees Fahrenheit for public forecast. Weather courtesy of forecast.io.

METAR (pilot weather report)

Closest report is Wilkes County Airport, 15.5 nm (28.7 km) WSW. Retrieved 2019/07/23 23:35 UTC (23 minutes ago):

KUKF 232335Z AUTO 00000KT 10SM CLR 21/18 A3001 RMK AO2

TAF (pilot weather forecast)

Closest forecast is Smith Reynolds Airport, 28.7 nm (53.2 km) ESE. Retrieved 2019/07/23 18:40 UTC (5 hours ago):

TAF KINT 231737Z 2318/2418 33018G22KT 3SM -RA OVC006 FM240000 03004KT 6SM BR OVC025 FM240800 36006KT 4SM BR SKC FM241300 01008KT P6SM SCT030